x

Point Arguello, Ca (ptgc1) Weather Station

3:00am - Mon 26th Jun 2017 All times are PDT. -7 hours from GMT.

  • Wind
    31mph, 36mph gusts
  • 空気 Temp 57°f
  • Sea Pressure 1014.1mb
  • Point Arguello, Ca
  • Point Arguello, Ca

More Historic Weather Station data

Upgrade to MSW Pro to gain access to the past 30 days of data for over 8000 Wavebouys and Weather Stations around the globe.

Join Pro

Comparision Forecast

View Surf forecast
   
Mon 06/26 3:00am 31 36 mph 1014.1mb 57f
2:00am 31 34 mph 1014.3mb 57f
1:00am 32 33 mph 1014.9mb 56f
12:00am 32 36 mph 1015.2mb 57f
Sun 06/25 11:00pm 31 33 mph 1015.1mb 57f
10:00pm 29 32 mph 1015.2mb 57f
9:00pm 28 30 mph 1015mb 57f
8:00pm 28 31 mph 1014.8mb 58f
7:00pm 29 33 mph 1014.6mb 58f
6:00pm 31 36 mph 1014.5mb 58f
5:00pm 31 32 mph 1014.8mb 57f
4:00pm 34 36 mph 1015.1mb 55f
3:00pm 31 32 mph 1015.5mb 55f
2:00pm 30 31 mph 1015.8mb 55f
1:00pm 32 34 mph 1015.4mb 55f
12:00pm 32 34 mph 1015.4mb 54f
11:00am 33 34 mph 1014.9mb 54f
10:00am 31 33 mph 1014.7mb 54f
9:00am 34 37 mph 1014.3mb 53f
8:00am 34 38 mph 1013.9mb 54f
7:00am 34 36 mph 1013.5mb 54f
6:00am 34 37 mph 1013.2mb 54f
5:00am 34 37 mph 1012.7mb 54f
4:00am 36 38 mph 1012.2mb 55f
3:00am 34 37 mph 1012.4mb 55f
2:00am 36 37 mph 1012.5mb 55f
1:00am 33 36 mph 1012.7mb 55f
12:00am 32 34 mph 1012.9mb 56f
Sat 06/24 11:00pm 33 36 mph 1013mb 56f
10:00pm 33 34 mph 1012.9mb 56f
9:00pm 32 36 mph 1012.7mb 57f
8:00pm 33 34 mph 1012.7mb 57f
7:00pm 32 34 mph 1012.7mb 57f
6:00pm 32 34 mph 1012.7mb 57f
5:00pm 33 34 mph 1012.8mb 58f
4:00pm 32 34 mph 1013.4mb 58f
3:00pm 30 32 mph 1013.8mb 58f
2:00pm 28 30 mph 1014.2mb 58f
1:00pm 25 26 mph 1014.5mb 56f
12:00pm 23 26 mph 1014.4mb 56f
11:00am 26 28 mph 1014.1mb 56f
10:00am 25 26 mph 1013.8mb 56f
9:00am 26 29 mph 1013.5mb 56f
8:00am 30 33 mph 1013mb 56f
7:00am 33 36 mph 1012.5mb 56f
6:00am 25 30 mph 1013.2mb 55f
5:00am 32 33 mph 1012.3mb 55f
4:00am 29 31 mph 1012.8mb 55f
3:00am 20 22 mph 1013.7mb 55f
2:00am 11 13 mph 1014.3mb 55f
1:00am 18 20 mph 1013.8mb 55f
12:00am 21 23 mph 1013.9mb 56f
Fri 06/23 11:00pm 34 37 mph 1012.4mb 55f
10:00pm 20 22 mph 1014.2mb 56f
9:00pm 20 22 mph 1013.7mb 56f
8:00pm 17 18 mph 1014.1mb 56f
7:00pm 16 17 mph 1014.1mb 56f
6:00pm 17 18 mph 1013.6mb 57f
5:00pm 11 13 mph 1014mb 57f
4:00pm 5 6 mph 1014.4mb 58f
3:00pm 9 10 mph 1014.6mb 57f
2:00pm 5 6 mph 1014.3mb 56f
1:00pm 5 10 mph 1014.7mb 57f
12:00pm 6 7 mph 1014.1mb 56f
11:00am 3 6 mph 1013.9mb 57f
10:00am 5 6 mph 1013.6mb 56f
9:00am 5 5 mph 1013.7mb 56f
8:00am 2 3 mph 1013.5mb 56f
7:00am 1 2 mph 1013.1mb 56f
6:00am 5 6 mph 1012.8mb 56f
5:00am 3 7 mph 1012.4mb 56f
4:00am 6 7 mph 1012.3mb 56f
3:00am 5 8 mph 1012.1mb 56f
2:00am 6 10 mph 1012.1mb 56f
1:00am 6 8 mph 1012mb 56f
12:00am 5 6 mph 1012.1mb 56f
Thu 06/22 11:00pm 6 8 mph 1011.8mb 56f
10:00pm 6 9 mph 1011.3mb 56f
9:00pm 9 13 mph 1010.8mb 56f
8:00pm 10 13 mph 1010.3mb 56f
7:00pm 10 15 mph 1009.9mb 57f
6:00pm 9 15 mph 1010mb 57f
5:00pm 10 17 mph 1009.9mb 56f
4:00pm 17 22 mph 1009.7mb 56f
3:00pm 13 21 mph 1009.9mb 58f
2:00pm 15 24 mph 1010mb 57f
1:00pm 22 26 mph 1009.9mb 56f